Barney, Quintin
United StatesManBorn 19592005 – 2026Runner id 76617
Events
65
2005 – 2026
Best pace
10.126
km/h · 2005
Best finish
11th
of 80 · 2006
Distance raced
6,689
km · splits not double-counted
Pace over time
km/h · higher is faster
Pace over time: 65 races from 2005 to 2026, ranging from 0.97 to 10.97 kilometres per hour, where higher is faster. A second, age-graded series is drawn above it; the gap between the two is the age credit.
- Actual pace
- Age-graded pace
Results
| Date | Event | Distance | Result | Pace km/h | Placing |
|---|---|---|---|---|---|
| 2005-10-29 | 50km | 4:56:16 h | 10.126 | 22/88 | |
| 2006-03-25 | 50km | 5:13:51 h | 9.559 | 11/80 | |
| 2006-10-21 | Ogden Valley Ultra MarathonUnited States | 50mi | 10:58:38 h | 7.330 | 9/10 |
| 2007-10-27 | Ogden Valley Ultra MarathonUnited States | 50mi | 9:53:00 h | 8.142 | 20/31 |
| 2008-03-22 | 50km | 5:55:42 h | 8.434 | 32/83 | |
| 2008-04-12 | Labor of Love 50 km RaceUnited States | 50km | 6:12:45 h | 8.048 | 10/18 |
| 2008-05-17 | Watershed Preserve 12 Hr Trail RaceUnited States | 12h | 78.471 km | 6.539 | 26/53 |
| 2008-07-26 | 50mi | 11:36:38 h | 6.931 | 158/202 | |
| 2008-10-25 | Ogden Valley Ultra MarathonUnited States | 50mi | 9:30:04 h | 8.469 | 10/25 |
| 2009-03-28 | 50km | 5:52:44 h | 8.505 | 49/122 | |
| 2009-06-06 | 50mi | 13:31:13 h | 5.952 | 134/226 | |
| 2009-10-15 | 50mi | 13:12:02 h | 6.096 | 8/13 | |
| 2009-10-31 | Javelina Jundred 100 km Endurance RunUnited States | 100km | 16:24:00 h | 6.098 | 49/102 |
| 2010-03-27 | 50km | 6:47:25 h | 7.363 | 96/143 | |
| 2010-06-05 | 50mi | 14:36:26 h | 5.509 | 145/220 | |
| 2010-09-10 | 100mi | 35:33:16 h | 4.526 | 172/182 | |
| 2011-03-25 | 100mi | 29:28:54 h | 5.459 | 30/31 | |
| 2011-06-04 | 50mi | 15:42:34 h | 5.122 | 152/196 | |
| 2011-09-09 | 100mi | 33:12:12 h | 4.847 | 125/183 | |
| 2011-10-22 | Ogden Valley Ultra MarathonUnited States | 50mi | 8:43:05 h | 9.230 | 9/30 |
| 2012-03-23 | 100mi | 25:50:02 h | 6.230 | 24/34 | |
| 2012-06-02 | 50mi | 11:42:41 h | 6.871 | 54/223 | |
| 2012-06-23 | 100mi | 28:53:18 h | 5.571 | 264/316 | |
| 2013-03-22 | 100mi | 27:12:40 h | 5.914 | 34/54 | |
| 2013-03-29 | 100mi | 25:19:23 h | 6.355 | 4/8 | |
| 2013-04-26 | 100mi | 27:43:41 h | 5.804 | 18/37 | |
| 2013-06-01 | 50mi | 12:21:04 h | 6.515 | 72/238 | |
| 2014-02-01 | 50mi | 11:51:00 h | 6.790 | 9/28 | |
| 2014-03-21 | 100mi | 29:05:30 h | 5.532 | 41/46 | |
| 2014-03-27 | 48h | 170.815 km | 3.559 | 10/15 | |
| 2014-04-25 | 100mi | 33:52:42 h | 4.750 | 26/26 | |
| 2014-06-07 | 50mi | 13:03:38 h | 6.161 | 110/257 | |
| 2014-07-19 | 50km | 11:44:13 h | 4.260 | 270/293 | |
| 2014-08-02 | 100km | 21:08:21 h | 4.731 | 45/51 | |
| 2014-09-26 | 100mi | 34:18:08 h | 4.692 | 144/166 | |
| 2015-01-10 | Long Beach Enlightened Ultra 100 MileUnited States | 100mi | 25:37:00 h | 6.282 | 5/8 |
| 2015-03-20 | 100mi | 29:16:54 h | 5.496 | 42/43 | |
| 2015-06-06 | 50mi | 15:31:10 h | 5.185 | 198/231 | |
| 2015-09-25 | 100mi | 35:37:51 h | 4.517 | 198/207 | |
| 2015-10-16 | 100mi | 29:18:16 h | 5.492 | 12/12 | |
| 2015-11-28 | 28mi | 7:56:18 h | 5.676 | 246/280 | |
| 2016-01-09 | Long Beach Enlightened Ultra 50 MileUnited States | 50mi | 13:11:00 h | 6.104 | 25/36 |
| 2016-02-13 | 55km | 8:13:18 h | 6.690 | 260/289 | |
| 2016-02-20 | 55km | 10:17:35 h | 5.343 | 204/223 | |
| 2016-03-05 | Razorback 24 hour Endurance RaceUnited States | 24h | 100.278 km | 4.178 | 7/24 |
| 2016-03-18 | 100mi | 30:12:54 h | 5.326 | 37/40 | |
| 2016-03-25 | 100mi | 30:42:21 h | 5.241 | 6/10 | |
| 2016-05-28 | 12h | 78.857 km | 6.571 | 25/53 | |
| 2016-06-04 | 50mi | 15:36:19 h | 5.156 | 208/264 | |
| 2017-03-17 | 100mi | 30:18:46 h | 5.309 | 34/37 |
Showing 1–50 of 65